sensor_id;sensor_type;location;lat;lon;timestamp;pressure;altitude;pressure_sealevel;temperature;humidity
37298;BME280;30517;51.932;4.278;2023-01-27T00:01:23;102661.59;;;7.55;68.13
37298;BME280;30517;51.932;4.278;2023-01-27T00:04:03;102674.25;;;7.65;68.42
37298;BME280;30517;51.932;4.278;2023-01-27T00:06:44;102671.53;;;7.62;68.18
37298;BME280;30517;51.932;4.278;2023-01-27T00:09:25;102668.94;;;7.64;68.20
37298;BME280;30517;51.932;4.278;2023-01-27T00:12:12;102578.59;;;7.14;68.40
37298;BME280;30517;51.932;4.278;2023-01-27T00:15:16;102658.38;;;7.62;68.20
37298;BME280;30517;51.932;4.278;2023-01-27T00:17:57;102650.44;;;7.61;68.57
37298;BME280;30517;51.932;4.278;2023-01-27T00:20:38;102651.31;;;7.61;68.17
37298;BME280;30517;51.932;4.278;2023-01-27T00:23:37;102644.09;;;7.56;68.56
37298;BME280;30517;51.932;4.278;2023-01-27T00:26:37;102657.50;;;7.62;68.46
37298;BME280;30517;51.932;4.278;2023-01-27T00:29:17;102653.06;;;7.61;68.31
37298;BME280;30517;51.932;4.278;2023-01-27T00:31:58;102638.63;;;7.49;68.63
37298;BME280;30517;51.932;4.278;2023-01-27T00:34:57;102636.13;;;7.52;68.07
37298;BME280;30517;51.932;4.278;2023-01-27T00:37:38;102635.09;;;7.49;68.28
37298;BME280;30517;51.932;4.278;2023-01-27T00:40:19;102651.41;;;7.63;68.37
37298;BME280;30517;51.932;4.278;2023-01-27T00:43:00;102642.31;;;7.54;68.18
37298;BME280;30517;51.932;4.278;2023-01-27T00:45:40;102644.84;;;7.51;67.98
37298;BME280;30517;51.932;4.278;2023-01-27T00:48:31;102652.25;;;7.62;68.38
37298;BME280;30517;51.932;4.278;2023-01-27T00:51:12;102653.91;;;7.60;68.18
37298;BME280;30517;51.932;4.278;2023-01-27T00:53:53;102645.19;;;7.61;68.84
37298;BME280;30517;51.932;4.278;2023-01-27T00:56:34;102629.97;;;7.52;68.38
37298;BME280;30517;51.932;4.278;2023-01-27T00:59:15;102626.34;;;7.48;68.14
37298;BME280;30517;51.932;4.278;2023-01-27T01:01:56;102654.88;;;7.62;68.18
37298;BME280;30517;51.932;4.278;2023-01-27T01:04:37;102651.41;;;7.63;68.37
37298;BME280;30517;51.932;4.278;2023-01-27T01:07:18;102636.13;;;7.52;68.18
37298;BME280;30517;51.932;4.278;2023-01-27T01:09:58;102635.34;;;7.55;68.01
37298;BME280;30517;51.932;4.278;2023-01-27T01:12:39;102651.41;;;7.63;68.22
37298;BME280;30517;51.932;4.278;2023-01-27T01:15:20;102652.25;;;7.62;68.77
37298;BME280;30517;51.932;4.278;2023-01-27T01:18:03;102655.75;;;7.62;68.15
37298;BME280;30517;51.932;4.278;2023-01-27T01:20:45;102648.78;;;7.63;68.20
37298;BME280;30517;51.932;4.278;2023-01-27T01:23:26;102633.38;;;7.49;68.19
37298;BME280;30517;51.932;4.278;2023-01-27T01:26:09;102628.00;;;7.46;68.19
37298;BME280;30517;51.932;4.278;2023-01-27T01:28:50;102648.66;;;7.60;67.94
37298;BME280;30517;51.932;4.278;2023-01-27T01:31:31;102651.41;;;7.63;68.40
37298;BME280;30517;51.932;4.278;2023-01-27T01:34:12;102622.63;;;7.43;68.66
37298;BME280;30517;51.932;4.278;2023-01-27T01:36:53;102637.97;;;7.55;68.28
37298;BME280;30517;51.932;4.278;2023-01-27T01:39:34;102629.84;;;7.49;68.38
37298;BME280;30517;51.932;4.278;2023-01-27T01:42:14;102655.75;;;7.62;68.65
37298;BME280;30517;51.932;4.278;2023-01-27T01:48:14;102660.94;;;7.61;68.71
37298;BME280;30517;51.932;4.278;2023-01-27T01:51:00;102669.78;;;7.63;68.61
37298;BME280;30517;51.932;4.278;2023-01-27T01:56:46;102668.00;;;7.62;68.75
37298;BME280;30517;51.932;4.278;2023-01-27T01:59:32;102697.72;;;7.61;68.92
37298;BME280;30517;51.932;4.278;2023-01-27T02:02:16;102678.50;;;7.62;68.47
37298;BME280;30517;51.932;4.278;2023-01-27T02:05:03;102661.56;;;7.53;68.51
37298;BME280;30517;51.932;4.278;2023-01-27T02:07:57;102667.09;;;7.61;68.39
37298;BME280;30517;51.932;4.278;2023-01-27T02:10:40;102671.44;;;7.61;68.38
37298;BME280;30517;51.932;4.278;2023-01-27T02:13:21;102669.00;;;7.65;68.14
37298;BME280;30517;51.932;4.278;2023-01-27T02:16:02;102671.63;;;7.65;68.49
37298;BME280;30517;51.932;4.278;2023-01-27T02:18:43;102669.66;;;7.60;68.75
37298;BME280;30517;51.932;4.278;2023-01-27T02:21:24;102643.88;;;7.49;68.44
37298;BME280;30517;51.932;4.278;2023-01-27T02:24:05;102683.88;;;7.65;68.81
37298;BME280;30517;51.932;4.278;2023-01-27T02:26:51;102671.53;;;7.62;68.21
37298;BME280;30517;51.932;4.278;2023-01-27T02:29:32;102644.59;;;7.45;68.00
37298;BME280;30517;51.932;4.278;2023-01-27T02:32:25;102674.25;;;7.65;68.12
37298;BME280;30517;51.932;4.278;2023-01-27T02:35:08;102653.84;;;7.58;68.25
37298;BME280;30517;51.932;4.278;2023-01-27T02:37:51;102655.56;;;7.58;68.15
37298;BME280;30517;51.932;4.278;2023-01-27T02:40:32;102676.13;;;7.68;68.49
37298;BME280;30517;51.932;4.278;2023-01-27T02:43:13;102676.81;;;7.64;68.40
37298;BME280;30517;51.932;4.278;2023-01-27T02:45:54;102678.75;;;7.68;68.34
37298;BME280;30517;51.932;4.278;2023-01-27T02:48:35;102681.38;;;7.68;68.10
37298;BME280;30517;51.932;4.278;2023-01-27T02:51:16;102660.81;;;7.58;67.90
37298;BME280;30517;51.932;4.278;2023-01-27T02:53:57;102669.56;;;7.57;68.05
37298;BME280;30517;51.932;4.278;2023-01-27T02:56:38;102687.44;;;7.67;68.02
37298;BME280;30517;51.932;4.278;2023-01-27T02:59:18;102679.41;;;7.62;68.32
37298;BME280;30517;51.932;4.278;2023-01-27T03:01:59;102695.31;;;7.67;68.00
37298;BME280;30517;51.932;4.278;2023-01-27T03:04:40;102701.41;;;7.66;68.18
37298;BME280;30517;51.932;4.278;2023-01-27T03:07:22;102696.16;;;7.66;68.01
37298;BME280;30517;51.932;4.278;2023-01-27T03:10:03;102701.50;;;7.67;68.59
37298;BME280;30517;51.932;4.278;2023-01-27T03:12:44;102700.28;;;7.59;68.28
37298;BME280;30517;51.932;4.278;2023-01-27T03:15:24;102703.94;;;7.63;68.00
37298;BME280;30517;51.932;4.278;2023-01-27T03:18:24;102700.22;;;7.58;68.26
37298;BME280;30517;51.932;4.278;2023-01-27T03:21:05;102717.16;;;7.66;67.86
37298;BME280;30517;51.932;4.278;2023-01-27T03:23:46;102712.78;;;7.65;68.07
37298;BME280;30517;51.932;4.278;2023-01-27T03:26:30;102704.88;;;7.65;68.51
37298;BME280;30517;51.932;4.278;2023-01-27T03:29:11;102716.47;;;7.70;68.22
37298;BME280;30517;51.932;4.278;2023-01-27T03:32:10;102710.25;;;7.68;68.36
37298;BME280;30517;51.932;4.278;2023-01-27T03:34:51;102628.63;;;7.18;68.24
37298;BME280;30517;51.932;4.278;2023-01-27T03:37:32;102717.16;;;7.66;68.01
37298;BME280;30517;51.932;4.278;2023-01-27T03:40:31;102706.44;;;7.60;68.39
37298;BME280;30517;51.932;4.278;2023-01-27T03:43:31;102693.88;;;7.52;68.36
37298;BME280;30517;51.932;4.278;2023-01-27T03:46:30;102703.06;;;7.64;68.27
37298;BME280;30517;51.932;4.278;2023-01-27T03:49:11;102678.66;;;7.44;67.86
37298;BME280;30517;51.932;4.278;2023-01-27T03:51:52;102714.44;;;7.63;68.56
37298;BME280;30517;51.932;4.278;2023-01-27T03:54:33;102716.16;;;7.62;68.67
37298;BME280;30517;51.932;4.278;2023-01-27T03:57:14;102689.25;;;7.45;68.01
37298;BME280;30517;51.932;4.278;2023-01-27T03:59:55;102702.59;;;7.51;68.94
37298;BME280;30517;51.932;4.278;2023-01-27T04:02:36;102717.72;;;7.57;68.25
37298;BME280;30517;51.932;4.278;2023-01-27T04:05:36;102733.72;;;7.63;67.93
37298;BME280;30517;51.932;4.278;2023-01-27T04:08:35;102731.94;;;7.62;68.07
37298;BME280;30517;51.932;4.278;2023-01-27T04:11:16;102756.25;;;7.58;68.51
37298;BME280;30517;51.932;4.278;2023-01-27T04:14:16;102761.50;;;7.58;68.57
37298;BME280;30517;51.932;4.278;2023-01-27T04:17:09;102735.09;;;7.53;68.50
37298;BME280;30517;51.932;4.278;2023-01-27T04:19:50;102745.81;;;7.60;68.29
37298;BME280;30517;51.932;4.278;2023-01-27T04:22:31;102749.22;;;7.57;68.57
37298;BME280;30517;51.932;4.278;2023-01-27T04:25:12;102761.50;;;7.58;68.16
37298;BME280;30517;51.932;4.278;2023-01-27T04:27:53;102749.88;;;7.51;68.39
37298;BME280;30517;51.932;4.278;2023-01-27T04:30:33;102758.00;;;7.58;68.62
37298;BME280;30517;51.932;4.278;2023-01-27T04:33:14;102758.00;;;7.58;68.72
37298;BME280;30517;51.932;4.278;2023-01-27T04:35:55;102754.16;;;7.49;68.62
37298;BME280;30517;51.932;4.278;2023-01-27T04:38:36;102763.97;;;7.53;68.39
37298;BME280;30517;51.932;4.278;2023-01-27T04:41:17;102770.94;;;7.53;68.41
37298;BME280;30517;51.932;4.278;2023-01-27T04:43:57;102768.31;;;7.53;68.25
37298;BME280;30517;51.932;4.278;2023-01-27T04:46:39;102759.50;;;7.51;68.30
37298;BME280;30517;51.932;4.278;2023-01-27T04:49:19;102770.00;;;7.51;68.48
37298;BME280;30517;51.932;4.278;2023-01-27T04:52:01;102777.88;;;7.51;68.42
37298;BME280;30517;51.932;4.278;2023-01-27T04:54:42;102756.41;;;7.40;68.39
37298;BME280;30517;51.932;4.278;2023-01-27T04:57:22;102775.25;;;7.51;68.59
37298;BME280;30517;51.932;4.278;2023-01-27T05:00:05;102769.72;;;7.45;68.42
37298;BME280;30517;51.932;4.278;2023-01-27T05:02:46;102772.53;;;7.49;68.32
37298;BME280;30517;51.932;4.278;2023-01-27T05:05:27;102733.88;;;7.24;68.43
37298;BME280;30517;51.932;4.278;2023-01-27T05:08:09;102777.78;;;7.49;68.30
37298;BME280;30517;51.932;4.278;2023-01-27T05:10:50;102760.72;;;7.38;68.58
37298;BME280;30517;51.932;4.278;2023-01-27T05:13:32;102774.84;;;7.42;68.64
37298;BME280;30517;51.932;4.278;2023-01-27T05:16:13;102778.53;;;7.45;68.68
37298;BME280;30517;51.932;4.278;2023-01-27T05:18:54;102780.88;;;7.39;68.11
37298;BME280;30517;51.932;4.278;2023-01-27T05:21:35;102775.50;;;7.36;68.66
37298;BME280;30517;51.932;4.278;2023-01-27T05:24:16;102790.69;;;7.43;68.60
37298;BME280;30517;51.932;4.278;2023-01-27T05:26:56;102799.38;;;7.42;68.43
37298;BME280;30517;51.932;4.278;2023-01-27T05:29:37;102797.59;;;7.41;68.78
37298;BME280;30517;51.932;4.278;2023-01-27T05:32:18;102780.25;;;7.24;68.12
37298;BME280;30517;51.932;4.278;2023-01-27T05:34:59;102795.09;;;7.44;65.69
37298;BME280;30517;51.932;4.278;2023-01-27T05:37:40;102800.47;;;7.47;65.97
37298;BME280;30517;51.932;4.278;2023-01-27T05:40:21;102781.84;;;7.41;66.00
37298;BME280;30517;51.932;4.278;2023-01-27T05:43:02;102787.44;;;7.50;66.82
37298;BME280;30517;51.932;4.278;2023-01-27T05:45:43;102793.66;;;7.52;67.08
37298;BME280;30517;51.932;4.278;2023-01-27T05:48:24;102790.16;;;7.52;67.28
37298;BME280;30517;51.932;4.278;2023-01-27T05:51:05;102765.09;;;7.39;67.12
37298;BME280;30517;51.932;4.278;2023-01-27T05:53:46;102797.91;;;7.49;67.33
37298;BME280;30517;51.932;4.278;2023-01-27T05:56:27;102789.84;;;7.44;67.26
37298;BME280;30517;51.932;4.278;2023-01-27T05:59:09;102802.97;;;7.44;67.87
37298;BME280;30517;51.932;4.278;2023-01-27T06:01:50;102788.38;;;7.30;67.45
37298;BME280;30517;51.932;4.278;2023-01-27T06:04:31;102794.75;;;7.37;67.60
37298;BME280;30517;51.932;4.278;2023-01-27T06:07:12;102785.66;;;7.28;67.92
37298;BME280;30517;51.932;4.278;2023-01-27T06:09:53;102806.88;;;7.33;68.09
37298;BME280;30517;51.932;4.278;2023-01-27T06:12:33;102801.53;;;7.31;68.07
37298;BME280;30517;51.932;4.278;2023-01-27T06:15:17;102776.53;;;7.19;67.86
37298;BME280;30517;51.932;4.278;2023-01-27T06:17:58;102793.41;;;7.25;68.29
37298;BME280;30517;51.932;4.278;2023-01-27T06:20:40;102796.59;;;7.18;67.98
37298;BME280;30517;51.932;4.278;2023-01-27T06:23:21;102813.59;;;7.26;68.03
37298;BME280;30517;51.932;4.278;2023-01-27T06:26:10;102816.66;;;7.16;68.38
37298;BME280;30517;51.932;4.278;2023-01-27T06:28:51;102817.00;;;7.24;68.09
37298;BME280;30517;51.932;4.278;2023-01-27T06:31:32;102827.41;;;7.22;68.12
37298;BME280;30517;51.932;4.278;2023-01-27T06:34:13;102813.28;;;7.19;67.96
37298;BME280;30517;51.932;4.278;2023-01-27T06:36:53;102821.16;;;7.19;68.14
37298;BME280;30517;51.932;4.278;2023-01-27T06:39:34;102825.47;;;7.18;67.95
37298;BME280;30517;51.932;4.278;2023-01-27T06:42:15;102810.34;;;7.13;68.07
37298;BME280;30517;51.932;4.278;2023-01-27T06:44:56;102816.44;;;7.12;68.13
37298;BME280;30517;51.932;4.278;2023-01-27T06:47:38;102831.50;;;7.16;68.17
37298;BME280;30517;51.932;4.278;2023-01-27T06:50:19;102813.69;;;7.08;68.25
37298;BME280;30517;51.932;4.278;2023-01-27T06:53:01;102801.72;;;6.94;68.43
37298;BME280;30517;51.932;4.278;2023-01-27T06:55:42;102814.31;;;7.03;68.10
37298;BME280;30517;51.932;4.278;2023-01-27T06:58:24;102844.56;;;7.14;68.17
37298;BME280;30517;51.932;4.278;2023-01-27T07:01:05;102839.97;;;7.10;68.41
37298;BME280;30517;51.932;4.278;2023-01-27T07:03:46;102842.69;;;7.12;68.23
37298;BME280;30517;51.932;4.278;2023-01-27T07:06:27;102810.38;;;6.93;68.49
37298;BME280;30517;51.932;4.278;2023-01-27T07:09:07;102845.22;;;7.10;68.26
37298;BME280;30517;51.932;4.278;2023-01-27T07:11:48;102842.59;;;7.10;68.60
37298;BME280;30517;51.932;4.278;2023-01-27T07:14:29;102840.81;;;7.09;68.19
37298;BME280;30517;51.932;4.278;2023-01-27T07:17:09;102820.84;;;6.92;68.06
37298;BME280;30517;51.932;4.278;2023-01-27T07:19:50;102838.16;;;7.07;68.46
37298;BME280;30517;51.932;4.278;2023-01-27T07:22:31;102827.22;;;6.98;68.27
37298;BME280;30517;51.932;4.278;2023-01-27T07:25:12;102833.59;;;7.03;68.23
37298;BME280;30517;51.932;4.278;2023-01-27T07:27:55;102850.34;;;7.07;68.01
37298;BME280;30517;51.932;4.278;2023-01-27T07:30:36;102841.47;;;7.03;68.25
37298;BME280;30517;51.932;4.278;2023-01-27T07:33:18;102857.06;;;7.00;68.81
37298;BME280;30517;51.932;4.278;2023-01-27T07:35:59;102844.97;;;7.04;68.07
37298;BME280;30517;51.932;4.278;2023-01-27T07:38:39;102859.81;;;7.03;67.53
37298;BME280;30517;51.932;4.278;2023-01-27T07:41:20;102858.53;;;7.13;67.51
37298;BME280;30517;51.932;4.278;2023-01-27T07:44:04;102870.81;;;7.14;66.93
37298;BME280;30517;51.932;4.278;2023-01-27T07:46:44;102869.69;;;7.09;66.91
37298;BME280;30517;51.932;4.278;2023-01-27T07:49:25;102845.13;;;6.87;67.37
37298;BME280;30517;51.932;4.278;2023-01-27T07:52:06;102888.78;;;7.05;67.54
37298;BME280;30517;51.932;4.278;2023-01-27T07:54:47;102867.69;;;7.03;67.20
37298;BME280;30517;51.932;4.278;2023-01-27T07:57:27;102854.50;;;6.82;67.59
37298;BME280;30517;51.932;4.278;2023-01-27T08:00:09;102863.34;;;6.84;67.63
37298;BME280;30517;51.932;4.278;2023-01-27T08:02:55;102895.19;;;6.92;67.75
37298;BME280;30517;51.932;4.278;2023-01-27T08:05:37;102908.72;;;7.01;67.68
37298;BME280;30517;51.932;4.278;2023-01-27T08:08:17;102891.09;;;6.99;67.84
37298;BME280;30517;51.932;4.278;2023-01-27T08:11:05;102882.88;;;6.91;67.70
37298;BME280;30517;51.932;4.278;2023-01-27T08:13:49;102904.31;;;7.00;67.95
37298;BME280;30517;51.932;4.278;2023-01-27T08:16:30;102912.97;;;6.99;67.95
37298;BME280;30517;51.932;4.278;2023-01-27T08:19:10;102914.78;;;7.00;67.62
37298;BME280;30517;51.932;4.278;2023-01-27T08:21:51;102915.69;;;7.01;67.74
37298;BME280;30517;51.932;4.278;2023-01-27T08:24:32;102919.16;;;7.00;67.97
37298;BME280;30517;51.932;4.278;2023-01-27T08:27:13;102919.81;;;6.96;67.92
37298;BME280;30517;51.932;4.278;2023-01-27T08:29:54;102903.69;;;6.86;67.85
37298;BME280;30517;51.932;4.278;2023-01-27T08:32:35;102899.09;;;6.82;67.99
37298;BME280;30517;51.932;4.278;2023-01-27T08:35:16;102916.16;;;6.92;67.97
37298;BME280;30517;51.932;4.278;2023-01-27T08:37:56;102916.84;;;6.88;67.95
37298;BME280;30517;51.932;4.278;2023-01-27T08:40:38;102920.44;;;6.90;67.98
37298;BME280;30517;51.932;4.278;2023-01-27T08:43:19;102919.69;;;6.93;67.78
37298;BME280;30517;51.932;4.278;2023-01-27T08:46:01;102916.16;;;6.92;67.95
37298;BME280;30517;51.932;4.278;2023-01-27T08:48:42;102908.78;;;6.83;68.01
37298;BME280;30517;51.932;4.278;2023-01-27T08:51:23;102905.25;;;6.83;67.82
37298;BME280;30517;51.932;4.278;2023-01-27T08:54:05;102900.69;;;6.79;68.07
37298;BME280;30517;51.932;4.278;2023-01-27T08:56:46;102914.78;;;6.81;67.75
37298;BME280;30517;51.932;4.278;2023-01-27T08:59:27;102913.88;;;6.80;68.41
37298;BME280;30517;51.932;4.278;2023-01-27T09:02:09;102929.78;;;6.83;68.05
37298;BME280;30517;51.932;4.278;2023-01-27T09:04:52;102925.41;;;6.84;68.21
37298;BME280;30517;51.932;4.278;2023-01-27T09:07:33;102928.84;;;6.83;68.09
37298;BME280;30517;51.932;4.278;2023-01-27T09:10:14;102931.41;;;6.81;68.28
37298;BME280;30517;51.932;4.278;2023-01-27T09:12:55;102946.41;;;6.84;67.96
37298;BME280;30517;51.932;4.278;2023-01-27T09:15:36;102943.66;;;6.81;68.16
37298;BME280;30517;51.932;4.278;2023-01-27T09:18:17;102941.03;;;6.81;68.29
37298;BME280;30517;51.932;4.278;2023-01-27T09:21:05;102941.91;;;6.81;68.10
37298;BME280;30517;51.932;4.278;2023-01-27T09:23:50;102920.44;;;6.71;68.26
37298;BME280;30517;51.932;4.278;2023-01-27T09:26:31;102948.88;;;6.81;68.25
37298;BME280;30517;51.932;4.278;2023-01-27T09:29:11;102945.44;;;6.82;68.19
37298;BME280;30517;51.932;4.278;2023-01-27T09:31:52;102950.59;;;6.80;68.37
37298;BME280;30517;51.932;4.278;2023-01-27T09:34:34;102951.38;;;6.78;68.61
37298;BME280;30517;51.932;4.278;2023-01-27T09:37:15;102944.31;;;6.77;68.16
37298;BME280;30517;51.932;4.278;2023-01-27T09:40:00;102844.41;;;6.15;68.34
37298;BME280;30517;51.932;4.278;2023-01-27T09:42:49;102951.38;;;6.78;68.26
37298;BME280;30517;51.932;4.278;2023-01-27T09:48:59;102947.03;;;6.78;68.50
37298;BME280;30517;51.932;4.278;2023-01-27T10:00:36;102941.69;;;6.77;68.24
37298;BME280;30517;51.932;4.278;2023-01-27T10:06:47;102946.88;;;6.75;68.47
37298;BME280;30517;51.932;4.278;2023-01-27T10:09:45;102944.16;;;6.74;68.33
37298;BME280;30517;51.932;4.278;2023-01-27T10:12:46;102936.22;;;6.72;68.48
37298;BME280;30517;51.932;4.278;2023-01-27T10:18:55;102946.03;;;6.76;68.38
37298;BME280;30517;51.932;4.278;2023-01-27T10:21:47;102950.53;;;6.79;68.24
37298;BME280;30517;51.932;4.278;2023-01-27T10:27:23;102957.38;;;6.75;68.28
37298;BME280;30517;51.932;4.278;2023-01-27T10:33:03;102936.78;;;6.65;68.60
37298;BME280;30517;51.932;4.278;2023-01-27T10:35:53;102951.28;;;6.76;68.23
37298;BME280;30517;51.932;4.278;2023-01-27T10:41:58;102948.66;;;6.76;68.33
37298;BME280;30517;51.932;4.278;2023-01-27T10:44:59;102948.56;;;6.75;68.29
37298;BME280;30517;51.932;4.278;2023-01-27T10:47:54;102943.19;;;6.72;68.41
37298;BME280;30517;51.932;4.278;2023-01-27T10:50:46;102945.94;;;6.75;68.24
37298;BME280;30517;51.932;4.278;2023-01-27T10:53:53;102949.41;;;6.74;68.39
37298;BME280;30517;51.932;4.278;2023-01-27T10:56:47;102810.44;;;5.99;68.33
37298;BME280;30517;51.932;4.278;2023-01-27T10:59:37;102941.53;;;6.74;68.35
37298;BME280;30517;51.932;4.278;2023-01-27T11:02:26;102940.66;;;6.73;68.17
37298;BME280;30517;51.932;4.278;2023-01-27T11:05:17;102947.63;;;6.73;68.31
37298;BME280;30517;51.932;4.278;2023-01-27T11:08:06;102938.84;;;6.72;68.59
37298;BME280;30517;51.932;4.278;2023-01-27T11:10:52;102930.03;;;6.70;68.42
37298;BME280;30517;51.932;4.278;2023-01-27T11:14:42;102927.09;;;6.64;68.22
37298;BME280;30517;51.932;4.278;2023-01-27T11:17:24;102938.69;;;6.69;68.41
37298;BME280;30517;51.932;4.278;2023-01-27T11:20:40;102929.09;;;6.70;68.40
37298;BME280;30517;51.932;4.278;2023-01-27T11:23:26;102911.44;;;6.65;68.34
37298;BME280;30517;51.932;4.278;2023-01-27T11:29:15;102924.69;;;6.69;68.36
37298;BME280;30517;51.932;4.278;2023-01-27T11:32:27;102917.66;;;6.68;68.29
37298;BME280;30517;51.932;4.278;2023-01-27T11:35:12;102915.84;;;6.67;68.36
37298;BME280;30517;51.932;4.278;2023-01-27T11:37:54;102917.44;;;6.63;68.29
37298;BME280;30517;51.932;4.278;2023-01-27T11:40:35;102921.09;;;6.67;68.56
37298;BME280;30517;51.932;4.278;2023-01-27T11:43:20;102915.72;;;6.63;68.69
37298;BME280;30517;51.932;4.278;2023-01-27T11:46:06;102917.66;;;6.68;68.52
37298;BME280;30517;51.932;4.278;2023-01-27T11:48:54;102899.69;;;6.57;68.34
37298;BME280;30517;51.932;4.278;2023-01-27T11:51:39;102909.66;;;6.64;68.34
37298;BME280;30517;51.932;4.278;2023-01-27T11:54:26;102906.81;;;6.60;68.64
37298;BME280;30517;51.932;4.278;2023-01-27T11:57:17;102912.28;;;6.64;68.44
37298;BME280;30517;51.932;4.278;2023-01-27T12:00:06;102898.19;;;6.62;68.66
37298;BME280;30517;51.932;4.278;2023-01-27T12:03:02;102794.72;;;5.99;68.59
37298;BME280;30517;51.932;4.278;2023-01-27T12:05:50;102890.03;;;6.56;68.63
37298;BME280;30517;51.932;4.278;2023-01-27T12:08:42;102889.47;;;6.63;68.71
37298;BME280;30517;51.932;4.278;2023-01-27T12:11:26;102897.34;;;6.63;69.01
37298;BME280;30517;51.932;4.278;2023-01-27T12:14:12;102875.81;;;6.51;68.75
37298;BME280;30517;51.932;4.278;2023-01-27T12:16:52;102891.97;;;6.60;68.67
37298;BME280;30517;51.932;4.278;2023-01-27T12:19:36;102874.84;;;6.49;69.04
37298;BME280;30517;51.932;4.278;2023-01-27T12:22:29;102880.38;;;6.55;67.52
37298;BME280;30517;51.932;4.278;2023-01-27T12:25:20;102883.25;;;6.61;68.10
37298;BME280;30517;51.932;4.278;2023-01-27T12:28:17;102889.34;;;6.60;68.14
37298;BME280;30517;51.932;4.278;2023-01-27T12:31:05;102874.97;;;6.52;68.00
37298;BME280;30517;51.932;4.278;2023-01-27T12:33:57;102877.81;;;6.57;68.40
37298;BME280;30517;51.932;4.278;2023-01-27T12:36:41;102890.31;;;6.62;68.05
37298;BME280;30517;51.932;4.278;2023-01-27T12:39:40;102762.06;;;5.92;68.53
37298;BME280;30517;51.932;4.278;2023-01-27T12:42:32;102882.19;;;6.56;66.85
37298;BME280;30517;51.932;4.278;2023-01-27T12:45:18;102879.00;;;6.63;67.56
37298;BME280;30517;51.932;4.278;2023-01-27T12:53:30;102874.59;;;6.82;67.33
37298;BME280;30517;51.932;4.278;2023-01-27T12:56:17;102871.31;;;6.86;67.40
37298;BME280;30517;51.932;4.278;2023-01-27T12:58:59;102867.63;;;6.82;67.29
37298;BME280;30517;51.932;4.278;2023-01-27T13:01:56;102868.81;;;6.89;67.59
37298;BME280;30517;51.932;4.278;2023-01-27T13:04:37;102866.19;;;6.89;67.55
37298;BME280;30517;51.932;4.278;2023-01-27T13:07:24;102871.56;;;6.92;67.47
37298;BME280;30517;51.932;4.278;2023-01-27T13:10:17;102837.47;;;6.73;67.15
37298;BME280;30517;51.932;4.278;2023-01-27T13:12:59;102873.50;;;6.96;67.75
37298;BME280;30517;51.932;4.278;2023-01-27T13:15:50;102798.09;;;6.53;67.54
37298;BME280;30517;51.932;4.278;2023-01-27T13:18:33;102873.63;;;6.99;67.64
37298;BME280;30517;51.932;4.278;2023-01-27T13:21:16;102870.09;;;6.99;67.59
37298;BME280;30517;51.932;4.278;2023-01-27T13:23:59;102871.09;;;7.01;67.66
37298;BME280;30517;51.932;4.278;2023-01-27T13:26:41;102875.44;;;7.00;67.68
37298;BME280;30517;51.932;4.278;2023-01-27T13:29:27;102872.88;;;7.02;67.51
37298;BME280;30517;51.932;4.278;2023-01-27T13:32:22;102869.31;;;7.00;67.70
37298;BME280;30517;51.932;4.278;2023-01-27T13:35:20;102875.44;;;7.00;67.79
37298;BME280;30517;51.932;4.278;2023-01-27T13:38:16;102849.56;;;6.89;67.57
37298;BME280;30517;51.932;4.278;2023-01-27T13:41:04;102829.78;;;6.77;67.61
37298;BME280;30517;51.932;4.278;2023-01-27T13:43:55;102873.63;;;6.99;67.73
37298;BME280;30517;51.932;4.278;2023-01-27T13:46:37;102859.44;;;6.94;67.48
37298;BME280;30517;51.932;4.278;2023-01-27T13:49:31;102858.47;;;6.92;67.67
37298;BME280;30517;51.932;4.278;2023-01-27T13:52:12;102866.53;;;6.97;67.78
37298;BME280;30517;51.932;4.278;2023-01-27T13:54:53;102885.66;;;7.14;67.50
37298;BME280;30517;51.932;4.278;2023-01-27T13:57:59;102886.47;;;7.13;67.26
37298;BME280;30517;51.932;4.278;2023-01-27T14:00:52;102863.00;;;6.96;67.44
37298;BME280;30517;51.932;4.278;2023-01-27T14:16:16;102886.97;;;7.04;67.05
37298;BME280;30517;51.932;4.278;2023-01-27T14:23:10;102856.16;;;6.80;67.38
37298;BME280;30517;51.932;4.278;2023-01-27T14:25:32;102872.34;;;6.90;67.73
37298;BME280;30517;51.932;4.278;2023-01-27T14:28:30;102900.16;;;7.05;67.66
37298;BME280;30517;51.932;4.278;2023-01-27T14:31:18;102902.03;;;7.08;67.75
37298;BME280;30517;51.932;4.278;2023-01-27T14:40:32;102910.94;;;7.12;67.71
37298;BME280;30517;51.932;4.278;2023-01-27T14:46:58;102905.59;;;7.10;67.69
37298;BME280;30517;51.932;4.278;2023-01-27T14:53:35;102889.22;;;6.96;67.67
37298;BME280;30517;51.932;4.278;2023-01-27T14:59:50;102925.03;;;7.14;67.74
37298;BME280;30517;51.932;4.278;2023-01-27T15:05:58;102929.44;;;7.15;67.31
37298;BME280;30517;51.932;4.278;2023-01-27T15:08:53;102930.41;;;7.17;67.59
37298;BME280;30517;51.932;4.278;2023-01-27T15:14:58;102906.09;;;7.01;66.98
37298;BME280;30517;51.932;4.278;2023-01-27T15:27:06;102939.16;;;7.17;67.44
37298;BME280;30517;51.932;4.278;2023-01-27T15:29:48;102947.94;;;7.18;67.39
37298;BME280;30517;51.932;4.278;2023-01-27T15:32:34;102947.88;;;7.16;67.07
37298;BME280;30517;51.932;4.278;2023-01-27T15:38:17;102944.41;;;7.17;67.33
37298;BME280;30517;51.932;4.278;2023-01-27T15:41:03;102947.94;;;7.18;67.31
37298;BME280;30517;51.932;4.278;2023-01-27T15:44:15;102949.75;;;7.19;67.16
37298;BME280;30517;51.932;4.278;2023-01-27T15:47:12;102944.38;;;7.16;67.37
37298;BME280;30517;51.932;4.278;2023-01-27T15:52:48;102938.28;;;7.17;67.38
37298;BME280;30517;51.932;4.278;2023-01-27T15:55:32;102940.78;;;7.14;67.21
37298;BME280;30517;51.932;4.278;2023-01-27T15:58:42;102948.56;;;7.12;67.54
37298;BME280;30517;51.932;4.278;2023-01-27T16:01:30;102949.44;;;7.13;67.73
37298;BME280;30517;51.932;4.278;2023-01-27T16:04:19;102944.19;;;7.13;67.47
37298;BME280;30517;51.932;4.278;2023-01-27T16:07:03;102950.44;;;7.15;67.50
37298;BME280;30517;51.932;4.278;2023-01-27T16:09:46;102974.00;;;7.13;67.66
37298;BME280;30517;51.932;4.278;2023-01-27T16:12:35;102935.78;;;7.00;67.71